Hauptseite
METAR-TAF:

METAR-TAF

Flughäfen :

Flugplatz St. Gallen-Altenrhein

St. Gallen, Schweiz

Breite: 47-29-06N, Länge: 009-33-43E, Höhe: 398 m

Beobachtung

Neuester Wetterbericht von vor 30 Minuten, um 04:50 UTC
Wind 2 kt aus unterschiedlichen Richtungen
Temperatur 14°C
Luftfeuchtigkeit 77%
Luftdruck 1022 hPa
Sichtweite 10 km oder mehr
keine Wolken unter 1500 m und keine Kumulonimbus oder Gewitterwolken

METAR: LSZR 240450Z AUTO VRB02KT CAVOK 14/10 Q1022

Zeit: 07:20 (05:20 UTC)

Prognose

Neuester Wetterbericht von vor 14 Stunden und 55 Minuten, um 14:25 UTC
Gültige Prognose vom 23 um 15 UTC bis 23 um 24 UTC
Wind 6 kt aus West/Nordwest
Sichtweite 10 km oder mehr
Leicht bewölkt in der Höhe von 3500 ft
Übergehend zu
vom 23 um 15 UTC bis 23 um 18 UTC
Sichtweite 10 km oder mehr
keine Wolken unter 1500 m und keine Kumulonimbus oder Gewitterwolken

TAF: LSZR 231425Z 2315/2324 29006KT 9999 FEW035 BECMG 2315/2318 CAVOK

Wetterbeobachtungen und Prognosen von mehr als 4000 Flughäfen (METAR und TAF Bericht).

Die verfügbaren Stationen werden durch gelbe und rote Markierungen auf der Karte dargestellt.

Führen Sie die Maus auf sie, um den Namen der Station zu sehen.

Darauf klicken, um die Beobachtung von Wetterbeobachtungen und Prognosen zu sehen.

Um die Karte zu ändern : klicken Sie auf den grünen Tasten mit einem schwarzen Kreuz Zum Vergrößern, auf den grünen Button mit einem Gedankenstrich zu verkleinern, oder auf die grünen Pfeile für benachbarte Karten.


METAR-TAF: